createdAt,value
2023-01-04T00:01:42.807Z,15.00
2023-01-04T00:04:10.035Z,14.30
2023-01-04T00:06:37.363Z,15.60
2023-01-04T00:09:04.629Z,15.10
2023-01-04T00:11:31.724Z,15.00
2023-01-04T00:13:59.582Z,15.20
2023-01-04T00:16:27.742Z,12.30
2023-01-04T00:18:54.972Z,11.70
2023-01-04T00:21:26.665Z,15.30
2023-01-04T00:23:54.759Z,15.20
2023-01-04T00:26:26.397Z,15.60
2023-01-04T00:28:57.832Z,15.80
2023-01-04T00:31:26.392Z,14.40
2023-01-04T00:33:54.509Z,16.40
2023-01-04T00:36:21.739Z,15.70
2023-01-04T00:39:07.670Z,14.30
2023-01-04T00:41:58.823Z,13.20
2023-01-04T00:44:26.910Z,13.30
2023-01-04T00:46:54.261Z,16.30
2023-01-04T00:49:21.308Z,15.20
2023-01-04T00:51:48.273Z,15.20
2023-01-04T00:54:15.976Z,16.20
2023-01-04T00:56:43.212Z,16.30
2023-01-04T00:59:11.161Z,11.90
2023-01-04T01:01:39.190Z,15.00
2023-01-04T01:04:06.456Z,14.00
2023-01-04T01:06:35.301Z,15.60
2023-01-04T01:09:02.549Z,14.70
2023-01-04T01:11:29.769Z,19.60
2023-01-04T01:13:57.500Z,16.60
2023-01-04T01:16:53.008Z,17.20
2023-01-04T01:19:12.199Z,12.70
2023-01-04T01:21:39.098Z,14.50
2023-01-04T01:24:06.200Z,12.70
2023-01-04T01:26:37.450Z,16.80
2023-01-04T01:29:04.381Z,17.70
2023-01-04T01:31:31.382Z,18.40
2023-01-04T01:33:58.459Z,19.90
2023-01-04T01:36:26.132Z,19.50
2023-01-04T01:38:53.668Z,16.30
2023-01-04T01:41:22.987Z,21.50
2023-01-04T01:43:53.102Z,16.80
2023-01-04T01:46:23.264Z,18.30
2023-01-04T01:48:52.447Z,16.10
2023-01-04T01:51:19.793Z,17.20
2023-01-04T01:53:47.959Z,15.80
2023-01-04T01:56:16.258Z,16.50
2023-01-04T01:58:45.637Z,21.20
2023-01-04T02:01:13.297Z,19.40
2023-01-04T02:03:42.671Z,18.80
2023-01-04T02:06:11.934Z,17.40
2023-01-04T02:08:40.350Z,16.30
2023-01-04T02:11:07.277Z,16.50
2023-01-04T02:13:55.358Z,18.20
2023-01-04T02:16:47.387Z,15.70
2023-01-04T02:19:29.724Z,22.00
2023-01-04T02:22:09.371Z,18.20
2023-01-04T02:24:50.813Z,16.80
2023-01-04T02:27:24.766Z,13.80
2023-01-04T02:30:03.965Z,13.90
2023-01-04T02:33:04.060Z,14.60
2023-01-04T02:35:50.163Z,17.10
2023-01-04T02:38:27.998Z,17.50
2023-01-04T02:41:20.834Z,17.20
2023-01-04T02:44:14.937Z,17.40
2023-01-04T02:46:50.625Z,16.60
2023-01-04T02:49:36.487Z,12.00
2023-01-04T02:52:03.458Z,12.70
2023-01-04T02:54:32.604Z,14.20
2023-01-04T02:57:14.682Z,14.00
2023-01-04T02:59:53.613Z,14.30
2023-01-04T03:02:42.372Z,11.90
2023-01-04T03:05:33.520Z,14.90
2023-01-04T03:08:23.594Z,14.60
2023-01-04T03:11:26.453Z,10.60
2023-01-04T03:13:54.082Z,10.00
2023-01-04T03:16:23.686Z,11.40
2023-01-04T03:18:53.020Z,11.90
2023-01-04T03:21:20.199Z,14.70
2023-01-04T03:24:25.843Z,12.80
2023-01-04T03:27:13.514Z,13.80
2023-01-04T03:30:26.277Z,16.10
2023-01-04T03:33:17.262Z,16.40
2023-01-04T03:36:19.705Z,10.20
2023-01-04T03:39:10.529Z,10.40
2023-01-04T03:42:20.088Z,11.00
2023-01-04T03:45:32.886Z,17.90
2023-01-04T03:48:29.570Z,15.40
2023-01-04T03:51:07.700Z,15.50
2023-01-04T03:53:38.451Z,14.80
2023-01-04T03:58:32.592Z,13.20
2023-01-04T04:01:04.037Z,12.30
2023-01-04T04:03:50.713Z,13.70
2023-01-04T04:06:36.841Z,13.20
2023-01-04T04:09:04.621Z,14.60
2023-01-04T04:11:31.605Z,13.30
2023-01-04T04:13:59.360Z,13.50
2023-01-04T04:16:27.692Z,17.00
2023-01-04T04:18:55.052Z,12.80
2023-01-04T04:21:22.207Z,14.20
2023-01-04T04:23:49.316Z,12.50
2023-01-04T04:26:16.542Z,13.10
2023-01-04T04:28:43.671Z,14.40
2023-01-04T04:31:10.661Z,13.50
2023-01-04T04:33:37.894Z,15.80
2023-01-04T04:36:05.343Z,16.30
2023-01-04T04:38:33.257Z,12.60
2023-01-04T04:41:18.906Z,12.40
2023-01-04T04:43:48.485Z,14.00
2023-01-04T04:46:15.579Z,16.20
2023-01-04T04:48:42.518Z,15.80
2023-01-04T04:51:12.709Z,15.20
2023-01-04T04:53:39.616Z,11.30
2023-01-04T04:56:07.662Z,13.60
2023-01-04T04:58:34.765Z,16.20
2023-01-04T05:01:01.896Z,14.10
2023-01-04T05:03:29.225Z,14.20
2023-01-04T05:05:58.984Z,20.30
2023-01-04T05:08:26.103Z,24.30
2023-01-04T05:10:54.324Z,43.80
2023-01-04T05:13:21.343Z,37.20
2023-01-04T05:15:51.480Z,17.90
2023-01-04T05:18:19.796Z,17.30
2023-01-04T05:20:47.165Z,17.60
2023-01-04T05:23:14.890Z,18.40
2023-01-04T05:25:41.882Z,17.40
2023-01-04T05:28:09.289Z,18.20
2023-01-04T05:30:51.268Z,14.30
2023-01-04T05:33:28.827Z,16.00
2023-01-04T05:35:57.931Z,18.80
2023-01-04T05:38:25.426Z,21.10
2023-01-04T05:40:52.624Z,19.50
2023-01-04T05:43:21.047Z,20.20
2023-01-04T05:45:50.283Z,19.00
2023-01-04T05:48:18.065Z,14.90
2023-01-04T05:50:48.077Z,15.10
2023-01-04T05:53:17.681Z,15.20
2023-01-04T05:55:45.664Z,17.60
2023-01-04T05:58:13.579Z,15.00
2023-01-04T06:00:40.548Z,19.10
2023-01-04T06:03:07.566Z,21.20
2023-01-04T06:05:34.519Z,16.50
2023-01-04T06:08:01.408Z,14.00
2023-01-04T06:10:28.370Z,17.50
2023-01-04T06:12:56.442Z,19.10
2023-01-04T06:15:23.715Z,16.20
2023-01-04T06:17:50.613Z,16.30
2023-01-04T06:20:17.862Z,14.20
2023-01-04T06:22:44.775Z,17.70
2023-01-04T06:25:11.773Z,13.90
2023-01-04T06:27:39.571Z,13.70
2023-01-04T06:30:07.051Z,15.20
2023-01-04T06:32:34.120Z,12.60
2023-01-04T06:35:01.306Z,14.00
2023-01-04T06:37:28.270Z,15.10
2023-01-04T06:39:55.463Z,14.40
2023-01-04T06:42:41.069Z,16.10
2023-01-04T06:45:08.408Z,11.50
2023-01-04T06:47:35.434Z,13.70
2023-01-04T06:50:02.488Z,14.10
2023-01-04T06:52:29.844Z,15.30
2023-01-04T06:54:56.785Z,18.10
2023-01-04T06:57:24.163Z,16.20
2023-01-04T06:59:51.087Z,19.90
2023-01-04T07:02:18.058Z,23.10
2023-01-04T07:04:46.579Z,18.00
2023-01-04T07:07:13.470Z,17.00
2023-01-04T07:09:40.520Z,18.20
2023-01-04T07:12:07.468Z,16.30
2023-01-04T07:14:34.475Z,18.90
2023-01-04T07:17:01.547Z,17.20
2023-01-04T07:19:28.598Z,15.90
2023-01-04T07:21:55.942Z,17.00
2023-01-04T07:24:29.587Z,14.30
2023-01-04T07:26:58.943Z,24.10
2023-01-04T07:29:25.799Z,22.10
2023-01-04T07:31:53.137Z,27.60
2023-01-04T07:34:22.079Z,21.90
2023-01-04T07:36:49.150Z,19.70
2023-01-04T07:39:17.602Z,16.00
2023-01-04T07:41:45.177Z,18.60
2023-01-04T07:44:13.703Z,19.20
2023-01-04T07:46:41.417Z,14.80
2023-01-04T07:49:16.729Z,16.90
2023-01-04T07:51:45.190Z,17.50
2023-01-04T07:54:12.237Z,15.20
2023-01-04T07:56:39.107Z,16.70
2023-01-04T07:59:06.991Z,14.40
2023-01-04T08:01:35.740Z,13.00
2023-01-04T08:04:02.717Z,13.70
2023-01-04T08:06:29.716Z,12.20
2023-01-04T08:08:59.571Z,12.20
2023-01-04T08:11:26.432Z,9.50
2023-01-04T08:13:53.526Z,10.80
2023-01-04T08:16:22.955Z,12.10
2023-01-04T08:18:55.931Z,9.50
2023-01-04T08:21:23.147Z,10.50
2023-01-04T08:23:50.150Z,11.70
2023-01-04T08:26:17.235Z,13.90
2023-01-04T08:28:44.589Z,10.80
2023-01-04T08:31:16.436Z,13.40
2023-01-04T08:33:43.738Z,12.60
2023-01-04T08:36:28.047Z,15.60
2023-01-04T08:38:59.857Z,12.10
2023-01-04T08:44:20.408Z,9.40
2023-01-04T08:46:47.785Z,7.90
2023-01-04T08:49:15.102Z,10.20
2023-01-04T08:51:42.297Z,11.70
2023-01-04T08:54:09.559Z,11.20
2023-01-04T08:56:36.721Z,11.50
2023-01-04T08:59:05.087Z,13.50
2023-01-04T09:01:33.716Z,10.10
2023-01-04T09:04:01.446Z,13.00
2023-01-04T09:06:28.992Z,10.40
2023-01-04T09:08:56.655Z,11.90
2023-01-04T09:11:23.897Z,12.30
2023-01-04T09:14:04.584Z,11.10
2023-01-04T09:16:34.391Z,11.60
2023-01-04T09:19:01.623Z,7.60
2023-01-04T09:21:29.075Z,9.50
2023-01-04T09:23:57.252Z,11.70
2023-01-04T09:26:24.282Z,11.30
2023-01-04T09:28:55.208Z,10.00
2023-01-04T09:31:24.443Z,7.60
2023-01-04T09:36:39.476Z,9.00
2023-01-04T09:39:06.519Z,10.00
2023-01-04T09:41:56.828Z,9.70
2023-01-04T09:44:54.539Z,9.20
2023-01-04T09:49:45.859Z,8.30
2023-01-04T09:52:18.393Z,7.80
2023-01-04T09:54:48.154Z,5.30
2023-01-04T09:57:21.983Z,6.20
2023-01-04T09:59:48.956Z,8.60
2023-01-04T10:02:23.256Z,7.80
2023-01-04T10:04:50.609Z,6.30
2023-01-04T10:07:27.342Z,7.10
2023-01-04T10:09:55.484Z,5.90
2023-01-04T10:13:12.409Z,7.40
2023-01-04T10:15:56.074Z,7.40
2023-01-04T10:19:51.085Z,7.40
2023-01-04T10:21:43.484Z,7.80
2023-01-04T10:27:19.999Z,8.80
2023-01-04T10:30:21.750Z,9.30
2023-01-04T10:32:58.757Z,6.70
2023-01-04T10:35:27.273Z,6.20
2023-01-04T10:37:57.743Z,7.20
2023-01-04T10:40:26.166Z,8.20
2023-01-04T10:42:56.429Z,7.40
2023-01-04T10:45:36.086Z,8.60
2023-01-04T10:48:06.785Z,8.10
2023-01-04T10:50:46.653Z,6.90
2023-01-04T10:53:20.831Z,7.60
2023-01-04T10:56:25.914Z,8.00
2023-01-04T10:58:49.280Z,8.50
2023-01-04T11:01:37.932Z,7.90
2023-01-04T11:04:12.503Z,7.90
2023-01-04T11:06:46.882Z,12.10
2023-01-04T11:09:22.790Z,8.90
2023-01-04T11:11:53.297Z,10.70
2023-01-04T11:14:20.288Z,11.60
2023-01-04T11:16:49.031Z,17.20
2023-01-04T11:19:16.250Z,8.80
2023-01-04T11:21:46.913Z,10.00
2023-01-04T11:24:31.652Z,9.10
2023-01-04T11:27:07.795Z,9.10
2023-01-04T11:29:42.125Z,11.20
2023-01-04T11:32:16.830Z,7.30
2023-01-04T11:34:44.847Z,9.40
2023-01-04T11:37:35.625Z,11.50
2023-01-04T11:40:18.375Z,8.40
2023-01-04T11:42:46.583Z,7.10
2023-01-04T11:45:24.328Z,10.90
2023-01-04T11:47:55.848Z,9.20
2023-01-04T11:50:40.415Z,10.90
2023-01-04T11:53:27.555Z,6.30
2023-01-04T11:56:14.562Z,7.40
2023-01-04T11:58:41.866Z,6.90
2023-01-04T12:01:20.431Z,10.40
2023-01-04T12:03:47.536Z,7.00
2023-01-04T12:06:28.571Z,6.00
2023-01-04T12:08:55.647Z,7.20
2023-01-04T12:11:26.749Z,6.30
2023-01-04T13:09:03.851Z,10.60
2023-01-04T13:11:46.172Z,10.70
2023-01-04T13:14:21.581Z,12.80
2023-01-04T13:17:12.015Z,11.10
2023-01-04T13:19:39.105Z,11.00
2023-01-04T13:22:10.806Z,12.20
2023-01-04T13:24:39.095Z,17.70
2023-01-04T13:27:10.428Z,11.80
2023-01-04T13:29:40.290Z,12.30
2023-01-04T13:32:12.051Z,16.90
2023-01-04T13:34:39.659Z,20.00
2023-01-04T13:37:17.310Z,19.70
2023-01-04T13:39:49.119Z,24.80
2023-01-04T13:42:29.581Z,32.80
2023-01-04T13:45:20.136Z,35.20
2023-01-04T13:47:49.284Z,37.90
2023-01-04T13:50:34.458Z,61.00
2023-01-04T13:53:07.904Z,33.80
2023-01-04T13:55:37.345Z,31.60
2023-01-04T13:58:06.541Z,63.60
2023-01-04T14:00:43.235Z,66.10
2023-01-04T14:03:10.474Z,94.30
2023-01-04T14:05:38.045Z,130.10
2023-01-04T14:08:11.648Z,112.00
2023-01-04T14:10:42.563Z,95.70
2023-01-04T14:15:41.462Z,87.80
2023-01-04T14:18:28.850Z,82.80
2023-01-04T14:20:55.755Z,90.50
2023-01-04T14:23:33.151Z,111.10
2023-01-04T14:26:00.025Z,105.50
2023-01-04T14:31:27.971Z,129.20
2023-01-04T14:33:55.779Z,141.60
2023-01-04T14:36:30.591Z,108.20
2023-01-04T14:38:58.954Z,81.00
2023-01-04T14:41:32.848Z,92.40
2023-01-04T14:44:00.858Z,80.80
2023-01-04T14:46:28.920Z,144.20
2023-01-04T14:48:55.848Z,116.90
2023-01-04T14:51:34.367Z,104.30
2023-01-04T14:54:01.344Z,98.70
2023-01-04T14:56:28.413Z,143.20
2023-01-04T14:58:55.482Z,100.40
2023-01-04T15:01:22.774Z,110.80
2023-01-04T15:03:49.971Z,111.30
2023-01-04T15:06:17.108Z,105.40
2023-01-04T15:08:45.495Z,92.70
2023-01-04T15:11:13.312Z,102.20
2023-01-04T15:13:40.809Z,129.00
2023-01-04T15:16:09.416Z,120.30
2023-01-04T15:18:36.412Z,130.50
2023-01-04T15:21:04.140Z,144.90
2023-01-04T15:23:31.580Z,145.50
2023-01-04T15:28:34.901Z,137.70
2023-01-04T15:31:06.445Z,100.60
2023-01-04T15:33:35.717Z,79.50
2023-01-04T15:36:04.147Z,78.40
2023-01-04T15:38:31.117Z,69.00
2023-01-04T15:41:02.933Z,88.00
2023-01-04T15:43:35.972Z,92.30
2023-01-04T15:46:04.999Z,91.00
2023-01-04T15:48:32.158Z,95.00
2023-01-04T15:51:02.911Z,98.90
2023-01-04T15:56:07.143Z,81.10
2023-01-04T15:58:34.316Z,64.50
2023-01-04T16:01:08.034Z,206.60
2023-01-04T16:03:36.103Z,159.60
2023-01-04T16:06:11.244Z,98.40
2023-01-04T16:08:38.379Z,101.50
2023-01-04T16:11:23.687Z,90.70
2023-01-04T16:13:52.337Z,102.10
2023-01-04T16:16:20.208Z,85.80
2023-01-04T16:18:48.795Z,73.30
2023-01-04T16:21:16.776Z,52.90
2023-01-04T16:23:43.664Z,58.50
2023-01-04T16:26:12.800Z,56.90
2023-01-04T16:28:40.021Z,60.90
2023-01-04T16:31:07.678Z,70.00
2023-01-04T16:33:35.797Z,60.50
2023-01-04T16:36:07.430Z,58.30
2023-01-04T16:38:42.055Z,47.40
2023-01-04T16:41:11.330Z,53.50
2023-01-04T16:43:48.661Z,39.40
2023-01-04T16:46:19.303Z,151.30
2023-01-04T16:48:55.423Z,59.50
2023-01-04T16:51:23.411Z,53.60
2023-01-04T16:53:50.599Z,57.20
2023-01-04T16:56:21.549Z,61.50
2023-01-04T16:58:48.469Z,52.00
2023-01-04T17:01:20.121Z,60.10
2023-01-04T17:03:47.951Z,65.50
2023-01-04T17:06:19.939Z,42.20
2023-01-04T17:08:47.713Z,31.50
2023-01-04T17:12:04.929Z,33.90
2023-01-04T17:14:10.207Z,31.20
2023-01-04T17:16:37.768Z,29.50
2023-01-04T17:19:04.731Z,35.90
2023-01-04T17:21:35.540Z,32.10
2023-01-04T17:24:03.252Z,31.70
2023-01-04T17:26:31.304Z,46.90
2023-01-04T17:28:58.614Z,31.00
2023-01-04T17:31:27.847Z,28.30
2023-01-04T17:33:55.023Z,31.20
2023-01-04T17:36:22.270Z,32.00
2023-01-04T17:38:49.432Z,30.90
2023-01-04T17:41:21.391Z,30.20
2023-01-04T17:43:50.836Z,25.60
2023-01-04T17:46:23.169Z,24.10
2023-01-04T17:49:17.672Z,27.90
2023-01-04T17:51:39.473Z,22.00
2023-01-04T17:54:06.486Z,21.50
2023-01-04T17:56:34.600Z,24.40
2023-01-04T17:59:02.797Z,23.60
2023-01-04T18:01:30.093Z,26.80
2023-01-04T18:03:57.884Z,23.00
2023-01-04T18:06:35.433Z,22.50
2023-01-04T18:09:03.662Z,16.70
2023-01-04T18:11:30.966Z,18.00
2023-01-04T18:13:57.904Z,19.10
2023-01-04T18:16:26.845Z,18.90
2023-01-04T18:18:54.579Z,18.40
2023-01-04T18:21:28.336Z,19.60
2023-01-04T18:29:33.658Z,16.90
2023-01-04T18:32:00.719Z,17.80
2023-01-04T18:34:27.690Z,17.90
2023-01-04T18:36:55.958Z,22.00
2023-01-04T18:39:22.954Z,19.90
2023-01-04T18:41:49.771Z,21.20
2023-01-04T18:44:34.899Z,24.10
2023-01-04T18:47:03.051Z,17.80
2023-01-04T18:49:30.067Z,17.30
2023-01-04T18:51:56.938Z,18.50
2023-01-04T18:54:24.132Z,19.00
2023-01-04T18:56:56.994Z,20.80
2023-01-04T18:59:28.628Z,20.30
2023-01-04T19:02:01.196Z,19.60
2023-01-04T19:04:33.678Z,26.00
2023-01-04T19:07:00.960Z,23.30
2023-01-04T19:09:28.063Z,17.60
2023-01-04T19:11:55.018Z,21.30
2023-01-04T19:14:22.306Z,21.80
2023-01-04T19:16:49.504Z,26.00
2023-01-04T21:21:12.273Z,21.50
2023-01-04T21:23:40.891Z,18.30
2023-01-04T21:26:08.502Z,15.90
2023-01-04T21:28:35.842Z,24.30
2023-01-04T21:31:02.770Z,23.20
2023-01-04T21:33:30.590Z,23.00
2023-01-04T21:35:57.468Z,30.10
2023-01-04T21:38:27.201Z,27.40
2023-01-04T21:40:54.106Z,24.10
2023-01-04T21:43:21.098Z,25.10
2023-01-04T21:45:48.034Z,19.80
2023-01-04T21:48:15.024Z,24.10
2023-01-04T21:50:41.903Z,57.40
2023-01-04T21:53:08.774Z,50.00
2023-01-04T21:55:36.322Z,81.90
2023-01-04T21:58:03.971Z,82.90
2023-01-04T22:00:30.951Z,84.20
2023-01-04T22:02:57.884Z,57.20
2023-01-04T22:05:24.942Z,45.40
2023-01-04T22:07:51.969Z,47.20
2023-01-04T22:10:19.143Z,30.20
2023-01-04T22:12:48.050Z,28.70
2023-01-04T22:15:15.162Z,21.80
2023-01-04T22:17:42.070Z,26.50
2023-01-04T22:20:09.919Z,26.90
2023-01-04T22:22:36.857Z,23.50
2023-01-04T22:25:03.964Z,25.10
2023-01-04T22:27:31.107Z,22.90
2023-01-04T22:29:58.138Z,21.30
2023-01-04T22:32:24.994Z,24.80
2023-01-04T22:34:52.045Z,29.80
2023-01-04T22:37:19.065Z,281.20
2023-01-04T22:39:46.000Z,58.20
2023-01-04T22:42:12.939Z,27.40
2023-01-04T22:44:39.941Z,32.80
2023-01-04T22:47:06.875Z,26.90
2023-01-04T22:49:33.836Z,30.40
2023-01-04T22:52:00.776Z,26.30
2023-01-04T22:54:27.702Z,23.00
2023-01-04T22:56:54.747Z,22.40
2023-01-04T22:59:23.049Z,24.80
2023-01-04T23:01:50.176Z,20.60
2023-01-04T23:04:19.019Z,21.00
2023-01-04T23:06:46.271Z,22.70
2023-01-04T23:09:15.163Z,14.70
2023-01-04T23:11:42.359Z,20.00
2023-01-04T23:14:14.983Z,18.40
2023-01-04T23:16:43.884Z,24.70
2023-01-04T23:21:40.883Z,25.00
2023-01-04T23:24:09.887Z,23.10
2023-01-04T23:26:36.976Z,20.60
2023-01-04T23:29:03.971Z,12.00
2023-01-04T23:31:32.118Z,15.10
2023-01-04T23:34:01.452Z,14.10
2023-01-04T23:36:30.343Z,12.60
2023-01-04T23:39:01.283Z,10.50
2023-01-04T23:41:47.212Z,6.40
2023-01-04T23:44:15.278Z,5.50
2023-01-04T23:46:42.320Z,5.60
2023-01-04T23:49:10.057Z,5.60
2023-01-04T23:51:37.428Z,5.70
2023-01-04T23:54:05.046Z,4.90
2023-01-04T23:56:35.027Z,4.20
2023-01-04T23:59:02.452Z,4.80
